Time;durP1;ratioP1;P1;durP2;ratioP2;P2;SDS_P1;SDS_P2;PMS_P1;PMS_P2;Temp;Humidity;BMP_temperature;BMP_pressure;BME280_temperature;BME280_humidity;BME280_pressure;Samples;Min_cycle;Max_cycle;Signal;HPM_P1;HPM_P2
2022/11/07 00:01:45;;;;;;;2.92;1.50;;;18.50;65.30;;;;;;6232434;22;20238;-81
2022/11/07 00:04:14;;;;;;;2.33;1.70;;;18.50;65.40;;;;;;6186442;22;20579;-81
2022/11/07 00:06:46;;;;;;;2.05;1.85;;;18.40;65.40;;;;;;6212165;22;20214;-81
2022/11/07 00:09:12;;;;;;;2.55;2.00;;;18.40;65.30;;;;;;6262607;22;20588;-81
2022/11/07 00:11:38;;;;;;;2.30;1.85;;;18.40;65.50;;;;;;6319941;22;20127;-81
2022/11/07 00:14:10;;;;;;;2.15;1.65;;;18.40;65.50;;;;;;6323008;22;20254;-81
2022/11/07 00:16:36;;;;;;;1.90;1.70;;;18.40;65.40;;;;;;6245906;22;20147;-81
2022/11/07 00:19:06;;;;;;;1.83;1.60;;;18.40;65.50;;;;;;6322301;22;20159;-81
2022/11/07 00:21:37;;;;;;;2.50;1.80;;;18.40;65.60;;;;;;6270051;22;20162;-81
2022/11/07 00:24:09;;;;;;;2.72;1.88;;;18.40;65.70;;;;;;6270664;22;20155;-81
2022/11/07 00:26:42;;;;;;;1.70;1.60;;;18.40;65.60;;;;;;6244201;22;20219;-81
2022/11/07 00:29:17;;;;;;;2.67;1.98;;;18.40;65.70;;;;;;6269408;22;20175;-81
2022/11/07 00:31:43;;;;;;;1.80;1.60;;;18.40;65.70;;;;;;6269106;22;20172;-81
2022/11/07 00:34:15;;;;;;;1.98;1.60;;;18.40;65.60;;;;;;6319889;22;20166;-81
2022/11/07 00:36:44;;;;;;;1.75;1.65;;;18.40;65.60;;;;;;6242967;22;20147;-81
2022/11/07 00:39:14;;;;;;;2.35;1.88;;;18.40;65.50;;;;;;6320461;22;20147;-81
2022/11/07 00:41:46;;;;;;;2.33;1.75;;;18.40;65.60;;;;;;6243077;22;20155;-81
2022/11/07 00:44:16;;;;;;;2.00;1.80;;;18.40;65.70;;;;;;6243497;22;20151;-81
2022/11/07 00:46:42;;;;;;;2.13;1.60;;;18.40;65.80;;;;;;6268574;22;20234;-81
2022/11/07 00:49:12;;;;;;;2.63;1.73;;;18.40;65.80;;;;;;6295002;22;20179;-81
2022/11/07 00:51:39;;;;;;;2.28;1.92;;;18.40;65.90;;;;;;6243192;22;20151;-81
2022/11/07 00:54:08;;;;;;;1.77;1.55;;;18.30;65.90;;;;;;6320382;22;20148;-81
2022/11/07 00:56:38;;;;;;;1.85;1.70;;;18.40;65.90;;;;;;6242737;22;20451;-81
2022/11/07 00:59:08;;;;;;;2.55;1.85;;;18.30;65.80;;;;;;6268251;22;20172;-81
2022/11/07 01:01:34;;;;;;;2.13;1.80;;;18.40;65.80;;;;;;6242159;22;20230;-81
2022/11/07 01:06:50;;;;;;;1.77;1.67;;;18.30;65.80;;;;;;6256414;22;20166;-81
2022/11/07 01:09:23;;;;;;;2.83;1.80;;;18.30;65.80;;;;;;6241253;22;20214;-81
2022/11/07 01:11:53;;;;;;;2.25;1.77;;;18.40;65.90;;;;;;6237597;22;20152;-81
2022/11/07 01:14:23;;;;;;;2.00;1.80;;;18.30;65.90;;;;;;6262671;22;20227;-81
2022/11/07 01:16:56;;;;;;;2.05;1.80;;;18.30;66.50;;;;;;6237629;22;20148;-81
2022/11/07 01:19:26;;;;;;;1.90;1.70;;;18.40;65.60;;;;;;6237392;22;20221;-81
2022/11/07 01:21:57;;;;;;;1.60;1.50;;;18.40;65.80;;;;;;6211906;22;20236;-81
2022/11/07 01:24:24;;;;;;;2.85;1.73;;;18.40;65.80;;;;;;6237290;22;20182;-81
2022/11/07 01:26:50;;;;;;;1.70;1.55;;;18.40;65.60;;;;;;6289862;22;20152;-81
2022/11/07 01:29:21;;;;;;;1.63;1.50;;;18.40;65.50;;;;;;6288336;22;20173;-81
2022/11/07 01:31:51;;;;;;;2.00;1.80;;;18.40;65.40;;;;;;6236765;22;20175;-81
2022/11/07 01:34:21;;;;;;;2.03;1.70;;;18.40;65.60;;;;;;6262543;22;20348;-81
2022/11/07 01:36:47;;;;;;;2.35;1.80;;;18.30;65.40;;;;;;6262656;22;20158;-81
2022/11/07 01:39:13;;;;;;;1.70;1.60;;;18.40;65.40;;;;;;6262945;22;20180;-81
2022/11/07 01:41:39;;;;;;;2.33;1.58;;;18.40;65.40;;;;;;6263762;22;20152;-81
2022/11/07 01:44:46;;;;;;;2.13;1.60;;;18.40;65.50;;;;;;6315092;22;20580;-81
2022/11/07 01:47:12;;;;;;;2.05;1.58;;;18.40;65.40;;;;;;6297478;22;20139;-81
2022/11/07 01:49:39;;;;;;;1.77;1.60;;;18.40;65.30;;;;;;6262817;22;20180;-81
2022/11/07 01:52:18;;;;;;;2.05;1.85;;;18.40;65.40;;;;;;6288670;22;20193;-81
2022/11/07 01:55:13;;;;;;;2.65;1.65;;;18.40;65.20;;;;;;6265078;22;20147;-81
2022/11/07 01:57:54;;;;;;;2.28;1.75;;;18.40;65.30;;;;;;6288454;22;20144;-81
2022/11/07 02:00:26;;;;;;;3.42;1.88;;;18.40;65.60;;;;;;6288761;22;20135;-81
2022/11/07 02:02:56;;;;;;;2.00;1.80;;;18.30;65.50;;;;;;6237276;22;20156;-81
2022/11/07 02:05:33;;;;;;;2.22;1.70;;;18.40;65.70;;;;;;6262599;22;20658;-81
2022/11/07 02:07:58;;;;;;;2.25;1.80;;;18.30;65.60;;;;;;6267373;22;20274;-81
2022/11/07 02:10:29;;;;;;;2.05;1.80;;;18.30;65.40;;;;;;6288998;22;20167;-81
2022/11/07 02:13:04;;;;;;;2.22;1.80;;;18.30;65.40;;;;;;6236842;22;20471;-81
2022/11/07 02:15:31;;;;;;;2.47;2.10;;;18.40;65.40;;;;;;6236373;22;20613;-81
2022/11/07 02:17:57;;;;;;;1.63;1.52;;;18.30;65.30;;;;;;6315642;22;20154;-81
2022/11/07 02:20:29;;;;;;;2.00;1.80;;;18.30;66.30;;;;;;6288390;22;20144;-81
2022/11/07 02:23:05;;;;;;;1.95;1.60;;;18.40;65.50;;;;;;6211382;22;20152;-81
2022/11/07 02:25:36;;;;;;;1.90;1.70;;;18.40;65.50;;;;;;6288147;22;20140;-81
2022/11/07 02:28:04;;;;;;;2.58;1.80;;;18.30;65.20;;;;;;6236577;22;20178;-81
2022/11/07 02:30:32;;;;;;;2.90;1.70;;;18.40;65.50;;;;;;6287328;22;20270;-81
2022/11/07 02:32:59;;;;;;;2.55;1.70;;;18.30;65.60;;;;;;6287662;22;20147;-81
2022/11/07 02:35:47;;;;;;;3.15;1.63;;;18.30;65.50;;;;;;6287817;22;20140;-81
2022/11/07 02:38:20;;;;;;;2.28;1.90;;;18.30;65.60;;;;;;6236902;22;20156;-81
2022/11/07 02:40:54;;;;;;;1.77;1.67;;;18.30;65.40;;;;;;6313831;22;20136;-81
2022/11/07 02:43:26;;;;;;;2.28;1.80;;;18.40;65.60;;;;;;6237998;22;20151;-81
2022/11/07 02:45:52;;;;;;;2.83;1.73;;;18.30;65.40;;;;;;6261595;22;20201;-81
2022/11/07 02:48:30;;;;;;;2.00;1.80;;;18.40;65.60;;;;;;6313710;22;20132;-81
2022/11/07 02:50:56;;;;;;;1.92;1.63;;;18.30;65.50;;;;;;6235794;22;20180;-81
2022/11/07 02:53:27;;;;;;;2.30;1.80;;;18.30;65.20;;;;;;6287327;22;20183;-81
2022/11/07 02:55:56;;;;;;;1.98;1.70;;;18.30;65.30;;;;;;6210782;22;20144;-81
2022/11/07 02:58:26;;;;;;;1.77;1.67;;;18.30;65.50;;;;;;6210853;22;20570;-81
2022/11/07 03:01:05;;;;;;;1.95;1.85;;;18.30;65.50;;;;;;6261446;22;20155;-81
2022/11/07 03:03:34;;;;;;;2.58;1.80;;;18.30;65.50;;;;;;6315099;22;20154;-81
2022/11/07 03:06:09;;;;;;;1.70;1.60;;;18.30;65.50;;;;;;6313022;22;20140;-81
2022/11/07 03:08:40;;;;;;;2.50;1.80;;;18.30;65.50;;;;;;6235616;22;20223;-81
2022/11/07 03:11:13;;;;;;;1.85;1.75;;;18.30;65.80;;;;;;6236052;22;20184;-81
2022/11/07 03:13:48;;;;;;;2.47;1.92;;;18.30;65.60;;;;;;6235415;22;20152;-81
2022/11/07 03:16:14;;;;;;;2.72;1.88;;;18.20;65.40;;;;;;6261411;22;20178;-81
2022/11/07 03:18:40;;;;;;;1.88;1.70;;;18.20;65.80;;;;;;6287407;22;20144;-81
2022/11/07 03:21:10;;;;;;;1.80;1.70;;;18.30;65.90;;;;;;6314405;22;20234;-82
2022/11/07 03:23:42;;;;;;;1.98;1.73;;;18.30;65.60;;;;;;6234980;22;20148;-81
2022/11/07 03:26:14;;;;;;;2.13;1.90;;;18.30;65.90;;;;;;6235632;22;20152;-81
2022/11/07 03:28:40;;;;;;;1.85;1.65;;;18.30;65.60;;;;;;6234707;22;20152;-82
2022/11/07 03:31:06;;;;;;;2.42;1.70;;;18.30;65.80;;;;;;6312485;22;20238;-81
2022/11/07 03:33:40;;;;;;;2.25;1.80;;;18.20;65.80;;;;;;6314331;22;20131;-81
2022/11/07 03:36:06;;;;;;;2.78;1.77;;;18.30;65.80;;;;;;6211310;22;20148;-81
2022/11/07 03:38:38;;;;;;;3.00;2.15;;;18.20;65.90;;;;;;6312982;22;20207;-81
2022/11/07 03:41:04;;;;;;;2.78;1.80;;;18.20;65.80;;;;;;6260616;22;20148;-81
2022/11/07 03:43:33;;;;;;;2.00;1.80;;;18.20;65.60;;;;;;6313315;22;20159;-81
2022/11/07 03:45:59;;;;;;;1.75;1.65;;;18.20;65.90;;;;;;6261506;22;20151;-81
2022/11/07 03:48:29;;;;;;;2.00;1.80;;;18.10;65.90;;;;;;6288078;22;20544;-81
2022/11/07 03:51:00;;;;;;;2.70;1.92;;;18.20;65.90;;;;;;6236902;22;20187;-81
2022/11/07 03:53:26;;;;;;;1.67;1.58;;;18.20;66.10;;;;;;6212433;22;20148;-81
2022/11/07 03:55:57;;;;;;;2.67;1.88;;;18.20;66.00;;;;;;6316567;22;20154;-80
2022/11/07 03:58:23;;;;;;;1.70;1.60;;;18.20;66.30;;;;;;6238165;22;20487;-81
2022/11/07 04:00:55;;;;;;;2.20;1.80;;;18.20;66.10;;;;;;6290337;22;20170;-81
2022/11/07 04:03:21;;;;;;;3.65;1.73;;;18.20;66.00;;;;;;6260393;22;20163;-81
2022/11/07 04:05:57;;;;;;;1.90;1.63;;;18.20;66.30;;;;;;6313469;22;20144;-81
2022/11/07 04:08:22;;;;;;;2.17;1.92;;;18.20;66.10;;;;;;6288716;22;20195;-81
2022/11/07 04:10:54;;;;;;;2.85;1.70;;;18.20;66.00;;;;;;6289976;22;20231;-81
2022/11/07 04:18:56;;;;;;;2.40;1.70;;;18.20;65.90;;;;;;6316332;22;20467;-81
2022/11/07 04:21:30;;;;;;;2.00;1.80;;;18.10;66.00;;;;;;6288551;22;20148;-81
2022/11/07 04:23:56;;;;;;;1.67;1.50;;;18.20;66.10;;;;;;6236987;22;20155;-81
2022/11/07 04:29:12;;;;;;;1.83;1.70;;;18.20;66.40;;;;;;6314200;22;20135;-81
2022/11/07 04:31:38;;;;;;;2.15;1.52;;;18.10;66.00;;;;;;6236140;22;20152;-81
2022/11/07 04:34:09;;;;;;;1.63;1.48;;;18.20;66.30;;;;;;6314124;22;20178;-81
2022/11/07 04:36:40;;;;;;;2.00;1.67;;;18.20;66.10;;;;;;6238605;22;20531;-81
2022/11/07 04:39:13;;;;;;;1.70;1.60;;;18.20;66.10;;;;;;6212578;22;20156;-81
2022/11/07 04:41:45;;;;;;;2.22;1.75;;;18.20;66.20;;;;;;6264750;22;20180;-81
2022/11/07 04:44:16;;;;;;;2.63;1.88;;;18.20;66.10;;;;;;6212812;22;20152;-81
2022/11/07 04:46:50;;;;;;;1.90;1.70;;;18.20;66.30;;;;;;6263901;22;20206;-82
2022/11/07 04:49:17;;;;;;;2.13;1.70;;;18.20;66.00;;;;;;6237130;22;20254;-81
2022/11/07 04:51:47;;;;;;;2.38;1.83;;;18.20;66.00;;;;;;6289058;22;20144;-81
2022/11/07 04:54:13;;;;;;;2.38;1.55;;;18.20;66.10;;;;;;6237795;22;20148;-81
2022/11/07 04:56:43;;;;;;;2.28;1.73;;;18.10;66.00;;;;;;6290531;22;20140;-81
2022/11/07 04:59:14;;;;;;;2.47;1.85;;;18.20;66.40;;;;;;6237927;22;20189;-81
2022/11/07 05:01:53;;;;;;;2.55;1.95;;;18.20;66.10;;;;;;6237145;22;20156;-81
2022/11/07 05:04:33;;;;;;;1.77;1.60;;;18.20;66.10;;;;;;6238170;22;20148;-81
2022/11/07 05:06:59;;;;;;;2.55;1.70;;;18.10;66.00;;;;;;6212540;22;20156;-81
2022/11/07 05:09:29;;;;;;;2.13;1.70;;;18.20;66.00;;;;;;6288788;22;20202;-81
2022/11/07 05:11:55;;;;;;;2.10;1.90;;;18.20;66.10;;;;;;6238285;22;20156;-81
2022/11/07 05:14:26;;;;;;;1.90;1.80;;;18.20;66.10;;;;;;6289536;22;20176;-81
2022/11/07 05:16:56;;;;;;;1.77;1.67;;;18.20;66.00;;;;;;6263103;22;20576;-81
2022/11/07 05:19:28;;;;;;;1.98;1.77;;;18.20;66.10;;;;;;6212252;22;20475;-81
2022/11/07 05:23:11;;;;;;;1.98;1.73;;;18.20;66.10;;;;;;6213467;22;20148;-81
2022/11/07 05:24:47;;;;;;;1.90;1.70;;;18.10;66.10;;;;;;6316044;22;20170;-81
2022/11/07 05:27:20;;;;;;;2.10;1.90;;;18.10;66.10;;;;;;6213479;22;20152;-81
2022/11/07 05:29:50;;;;;;;2.72;1.92;;;18.10;66.40;;;;;;6213964;22;20203;-81
2022/11/07 05:32:19;;;;;;;2.80;1.50;;;18.10;66.30;;;;;;6238897;22;20178;-81
2022/11/07 05:34:53;;;;;;;2.35;2.05;;;18.10;66.20;;;;;;6283727;22;20220;-81
2022/11/07 05:37:19;;;;;;;2.08;1.52;;;18.00;66.00;;;;;;6183381;22;20160;-81
2022/11/07 05:39:49;;;;;;;2.88;1.98;;;18.10;66.30;;;;;;6232128;22;20156;-81
2022/11/07 05:42:20;;;;;;;2.00;1.65;;;18.10;66.40;;;;;;6208485;22;20157;-81
2022/11/07 05:44:53;;;;;;;3.03;1.80;;;18.10;66.40;;;;;;6183133;22;20153;-81
2022/11/07 05:47:26;;;;;;;2.53;1.90;;;18.10;66.30;;;;;;6208476;22;20156;-81
2022/11/07 05:49:52;;;;;;;1.80;1.70;;;18.10;66.40;;;;;;6232664;22;20643;-81
2022/11/07 05:52:22;;;;;;;2.00;1.80;;;18.10;66.40;;;;;;6232418;22;20141;-81
2022/11/07 05:54:54;;;;;;;2.78;2.00;;;18.00;66.10;;;;;;6182571;22;20192;-81
2022/11/07 05:57:20;;;;;;;2.92;2.10;;;18.10;66.10;;;;;;6207241;22;20243;-81
2022/11/07 05:59:50;;;;;;;1.98;1.75;;;18.10;66.20;;;;;;6232372;22;20153;-81
2022/11/07 06:02:21;;;;;;;2.10;1.70;;;18.10;66.40;;;;;;6206870;22;20589;-81
2022/11/07 06:04:47;;;;;;;2.17;1.75;;;18.10;66.40;;;;;;6210554;22;20152;-81
2022/11/07 06:07:12;;;;;;;3.03;1.83;;;18.00;66.10;;;;;;6315144;22;20133;-81
2022/11/07 06:09:43;;;;;;;1.70;1.60;;;18.10;65.90;;;;;;6238962;22;20258;-81
2022/11/07 06:12:09;;;;;;;3.13;1.83;;;18.10;66.60;;;;;;6188252;22;20155;-81
2022/11/07 06:14:35;;;;;;;1.85;1.75;;;18.10;65.90;;;;;;6264694;22;20132;-81
2022/11/07 06:17:02;;;;;;;1.70;1.60;;;18.10;65.90;;;;;;6289084;22;20587;-81
2022/11/07 06:19:28;;;;;;;2.28;1.67;;;18.20;65.80;;;;;;6240780;22;20173;-81
2022/11/07 06:21:59;;;;;;;1.80;1.70;;;18.20;65.80;;;;;;6239412;22;20179;-81
2022/11/07 06:24:30;;;;;;;1.73;1.60;;;18.20;65.60;;;;;;6215686;22;20194;-81
2022/11/07 06:26:56;;;;;;;1.80;1.40;;;18.30;65.50;;;;;;6238965;22;20202;-81
2022/11/07 06:29:24;;;;;;;2.03;1.70;;;18.30;65.50;;;;;;6265681;22;20162;-81
2022/11/07 06:31:56;;;;;;;1.58;1.48;;;18.30;65.20;;;;;;6216138;22;20148;-81
2022/11/07 06:34:23;;;;;;;2.55;1.90;;;18.30;65.20;;;;;;6244623;22;20154;-81
2022/11/07 06:36:58;;;;;;;1.77;1.55;;;18.30;65.30;;;;;;6292946;22;20548;-81
2022/11/07 06:39:39;;;;;;;2.10;1.90;;;18.30;65.50;;;;;;6193934;22;20155;-84
2022/11/07 06:42:09;;;;;;;2.22;2.00;;;18.30;65.40;;;;;;6218176;22;20151;-82
2022/11/07 06:44:35;;;;;;;2.08;1.70;;;18.30;65.10;;;;;;6240793;22;20203;-80
2022/11/07 06:47:02;;;;;;;2.60;1.70;;;18.40;65.20;;;;;;6264977;22;20555;-81
2022/11/07 06:49:31;;;;;;;2.03;1.58;;;18.30;65.20;;;;;;6264108;22;20171;-80
2022/11/07 06:52:05;;;;;;;2.03;1.63;;;18.40;65.40;;;;;;6190038;22;20151;-80
2022/11/07 06:54:30;;;;;;;2.10;1.90;;;18.40;65.40;;;;;;6238247;22;20171;-81
2022/11/07 06:56:56;;;;;;;1.63;1.52;;;18.40;65.40;;;;;;6265108;22;20485;-81
2022/11/07 06:59:23;;;;;;;2.10;1.67;;;18.40;65.30;;;;;;6237617;22;20219;-81
2022/11/07 07:01:50;;;;;;;1.70;1.60;;;18.40;65.50;;;;;;6240361;22;20614;-81
2022/11/07 07:04:20;;;;;;;2.03;1.80;;;18.40;65.50;;;;;;6237439;22;20510;-81
2022/11/07 07:06:49;;;;;;;1.88;1.60;;;18.40;65.50;;;;;;6187782;22;20230;-81
2022/11/07 07:09:17;;;;;;;1.85;1.70;;;18.40;65.20;;;;;;6204687;22;20196;-81
2022/11/07 07:11:49;;;;;;;1.95;1.60;;;18.40;65.10;;;;;;6235708;22;20148;-81
2022/11/07 07:14:18;;;;;;;1.70;1.60;;;18.40;65.20;;;;;;6210227;22;20174;-80
2022/11/07 07:16:46;;;;;;;3.72;1.92;;;18.40;65.10;;;;;;6263262;22;20183;-82
2022/11/07 07:19:55;;;;;;;2.90;1.80;;;18.40;64.90;;;;;;6238812;22;20174;-87
2022/11/07 08:25:29;;;;;;;5.32;2.00;;;18.70;64.90;;;;;;6373333;22;20605;-83
2022/11/07 08:28:09;;;;;;;3.95;1.92;;;18.70;64.60;;;;;;6290114;22;20151;-84
2022/11/07 08:30:42;;;;;;;9.02;2.08;;;18.60;64.80;;;;;;6219927;22;20207;-84
2022/11/07 08:36:59;;;;;;;6.25;1.90;;;18.70;64.90;;;;;;6136030;23;20163;-84
2022/11/07 08:43:04;;;;;;;4.97;2.13;;;18.70;65.20;;;;;;6076993;23;20168;-85
2022/11/07 08:45:48;;;;;;;3.83;1.95;;;18.70;65.00;;;;;;6051560;23;20209;-86
2022/11/07 08:48:48;;;;;;;7.90;2.15;;;18.60;64.40;;;;;;6022944;23;20467;-83
2022/11/07 08:51:26;;;;;;;6.60;2.00;;;18.70;64.50;;;;;;6019080;23;20193;-83
2022/11/07 08:54:07;;;;;;;3.92;1.90;;;18.70;64.80;;;;;;6049512;23;20154;-82
2022/11/07 08:56:42;;;;;;;6.03;1.90;;;18.70;64.40;;;;;;6052220;23;20154;-81
2022/11/07 08:59:19;;;;;;;5.72;2.00;;;18.70;64.50;;;;;;6030894;23;20228;-84
2022/11/07 09:01:49;;;;;;;3.55;2.10;;;18.70;64.20;;;;;;6026247;23;20201;-84
2022/11/07 09:04:17;;;;;;;4.88;1.80;;;18.70;65.10;;;;;;6047999;23;20209;-83
2022/11/07 09:06:43;;;;;;;4.90;2.13;;;18.70;64.50;;;;;;6020627;23;20161;-83
2022/11/07 09:09:10;;;;;;;3.78;2.15;;;18.70;64.40;;;;;;6018609;23;20245;-82
2022/11/07 09:11:47;;;;;;;4.57;2.00;;;18.70;64.50;;;;;;6024646;23;20294;-82
2022/11/07 09:14:32;;;;;;;2.88;2.20;;;18.70;64.70;;;;;;6102815;23;20148;-83
2022/11/07 09:17:17;;;;;;;3.47;1.95;;;18.70;64.40;;;;;;6062430;23;20160;-81
2022/11/07 09:20:14;;;;;;;5.18;2.10;;;18.70;64.60;;;;;;6087110;23;20581;-82
2022/11/07 09:23:46;;;;;;;;;;;;;;;;;;;;;
2022/11/07 09:26:49;;;;;;;5.18;2.13;;;18.70;64.70;;;;;;6093401;23;20276;-82
2022/11/07 09:29:28;;;;;;;5.20;2.10;;;18.70;64.40;;;;;;6101917;23;20625;-82
2022/11/07 09:32:25;;;;;;;4.60;2.00;;;18.70;64.20;;;;;;6072698;23;20506;-82
2022/11/07 09:34:52;;;;;;;4.90;2.13;;;18.70;64.80;;;;;;6055970;23;20145;-81
2022/11/07 09:37:34;;;;;;;4.32;2.00;;;18.70;65.70;;;;;;6033697;23;20221;-81
2022/11/07 09:40:10;;;;;;;6.80;2.30;;;18.80;64.50;;;;;;6034580;23;20172;-82
2022/11/07 09:43:25;;;;;;;3.17;2.20;;;18.80;64.90;;;;;;6113594;23;20615;-83
2022/11/07 09:46:38;;;;;;;7.35;2.60;;;18.80;63.90;;;;;;6024011;23;20174;-82
2022/11/07 09:49:49;;;;;;;3.85;2.40;;;18.80;64.40;;;;;;5920524;24;20164;-82
2022/11/07 09:52:50;;;;;;;5.03;2.08;;;18.70;65.40;;;;;;5890008;24;20157;-82
2022/11/07 09:55:43;;;;;;;4.90;2.25;;;18.80;64.90;;;;;;5846430;24;20205;-82
2022/11/07 09:58:45;;;;;;;5.00;2.10;;;18.80;65.00;;;;;;5856404;24;20158;-83
2022/11/07 10:01:43;;;;;;;3.28;1.83;;;18.80;65.90;;;;;;5887244;24;20157;-83
2022/11/07 10:04:52;;;;;;;8.48;2.55;;;18.80;66.00;;;;;;5935683;24;20158;-83
2022/11/07 10:08:18;;;;;;;3.33;2.10;;;18.80;66.10;;;;;;5911728;24;20173;-84
2022/11/07 10:11:32;;;;;;;;;;;;;;;;;;;;;
2022/11/07 10:14:58;;;;;;;;;;;;;;;;;;;;;
2022/11/07 10:25:25;;;;;;;3.40;2.13;;;18.80;65.80;;;;;;5890904;24;20166;-85
2022/11/07 10:28:22;;;;;;;5.60;2.40;;;18.80;65.20;;;;;;5906413;24;20173;-83
2022/11/07 10:30:51;;;;;;;4.05;2.33;;;18.80;65.30;;;;;;5856490;24;20379;-82
2022/11/07 10:33:50;;;;;;;4.40;2.40;;;18.80;64.80;;;;;;5858042;24;20159;-82
2022/11/07 10:36:25;;;;;;;6.00;2.90;;;18.80;65.00;;;;;;5903375;24;20174;-85
2022/11/07 10:39:23;;;;;;;5.70;2.63;;;18.80;64.50;;;;;;5906354;24;20161;-85
2022/11/07 10:42:17;;;;;;;4.68;2.10;;;18.80;65.00;;;;;;5940765;24;20154;-86
2022/11/07 10:45:55;;;;;;;4.45;2.47;;;18.70;65.70;;;;;;5944007;24;20152;-86
2022/11/07 10:48:28;;;;;;;6.05;2.70;;;18.80;65.60;;;;;;5967550;24;20176;-84
2022/11/07 10:50:55;;;;;;;4.18;2.50;;;18.80;65.30;;;;;;6011524;23;20261;-83
2022/11/07 10:53:37;;;;;;;6.15;2.50;;;18.80;65.20;;;;;;5967247;24;20163;-85
2022/11/07 10:56:20;;;;;;;5.93;2.50;;;18.80;65.00;;;;;;5939126;24;20171;-87
2022/11/07 10:59:42;;;;;;;4.85;2.67;;;18.80;65.40;;;;;;5914808;24;20160;-86
2022/11/07 11:02:31;;;;;;;6.13;2.00;;;18.90;65.30;;;;;;6057132;23;20180;-86
2022/11/07 11:05:52;;;;;;;5.45;2.42;;;18.80;65.00;;;;;;6094297;23;20527;-87
2022/11/07 11:09:21;;;;;;;;;;;;;;;;;;;;;
2022/11/07 11:12:36;;;;;;;3.78;2.47;;;18.80;64.40;;;;;;6091450;23;20246;-85
2022/11/07 11:16:13;;;;;;;;;;;;;;;;;;;;;
2022/11/07 11:19:03;;;;;;;5.25;2.80;;;18.80;64.30;;;;;;6037121;23;20158;-87
2022/11/07 11:22:27;;;;;;;4.60;2.45;;;18.80;64.50;;;;;;5937152;24;20557;-86
2022/11/07 11:28:42;;;;;;;4.90;2.80;;;18.80;63.90;;;;;;5821883;24;20251;-86
2022/11/07 11:31:33;;;;;;;3.60;2.38;;;18.80;65.00;;;;;;5884516;24;20208;-86
2022/11/07 11:34:47;;;;;;;4.68;2.53;;;18.80;64.40;;;;;;5869771;24;20162;-86
2022/11/07 11:38:04;;;;;;;;;;;;;;;;;;;;;
2022/11/07 11:41:28;;;;;;;6.05;2.40;;;18.80;64.10;;;;;;5871594;24;20159;-85
2022/11/07 11:44:48;;;;;;;3.72;1.95;;;18.80;64.60;;;;;;5906473;24;20162;-84
2022/11/07 11:47:42;;;;;;;;;;;;;;;;;;;;;
2022/11/07 11:50:29;;;;;;;6.25;2.50;;;18.90;64.90;;;;;;5941937;24;20238;-85
2022/11/07 11:53:19;;;;;;;5.03;2.60;;;18.80;64.70;;;;;;5920666;24;20156;-82
2022/11/07 11:56:20;;;;;;;5.40;2.60;;;18.80;65.00;;;;;;5916821;24;20246;-83
2022/11/07 11:59:25;;;;;;;3.53;2.00;;;18.90;65.30;;;;;;5953360;24;20158;-83
2022/11/07 12:02:22;;;;;;;3.83;2.33;;;18.80;64.80;;;;;;6014107;23;20153;-83
2022/11/07 12:05:16;;;;;;;5.38;2.38;;;18.80;64.70;;;;;;6026037;23;20157;-83
2022/11/07 12:08:13;;;;;;;;;;;;;;;;;;;;;
2022/11/07 12:11:37;;;;;;;4.05;2.20;;;18.80;64.50;;;;;;6031276;23;20206;-83
2022/11/07 12:14:45;;;;;;;4.05;2.42;;;18.90;65.20;;;;;;6057128;23;20149;-83
2022/11/07 12:21:25;;;;;;;3.75;2.67;;;18.80;64.80;;;;;;5895731;24;20277;-84
2022/11/07 12:24:26;;;;;;;3.42;2.33;;;18.80;65.60;;;;;;5844956;24;20183;-85
2022/11/07 12:27:26;;;;;;;4.80;2.67;;;18.80;64.10;;;;;;5907302;24;20276;-84
2022/11/07 12:30:16;;;;;;;4.85;2.15;;;18.80;65.10;;;;;;5891004;24;20747;-84
2022/11/07 12:33:15;;;;;;;4.28;2.50;;;18.80;65.00;;;;;;5905237;24;20176;-85
2022/11/07 12:36:12;;;;;;;3.72;2.15;;;18.70;64.40;;;;;;5912323;24;20164;-86
2022/11/07 12:39:05;;;;;;;4.32;2.35;;;18.80;65.10;;;;;;5866174;24;20162;-88
2022/11/07 12:41:50;;;;;;;4.00;2.40;;;18.70;64.80;;;;;;5898475;24;20157;-85
2022/11/07 12:45:02;;;;;;;;;;;;;;;;;;;;;
2022/11/07 12:47:58;;;;;;;3.25;2.47;;;18.80;64.70;;;;;;5949434;24;20180;-86
2022/11/07 12:50:33;;;;;;;3.97;2.50;;;18.80;64.60;;;;;;5921531;24;20195;-86
2022/11/07 12:53:33;;;;;;;3.22;2.40;;;18.70;64.20;;;;;;5914098;24;20539;-85
2022/11/07 12:56:21;;;;;;;2.45;2.25;;;18.80;64.10;;;;;;5856725;24;20159;-84
2022/11/07 12:58:54;;;;;;;3.63;2.50;;;18.80;64.80;;;;;;5916454;24;20165;-84
2022/11/07 13:01:39;;;;;;;3.25;2.40;;;18.80;64.60;;;;;;6032211;23;20165;-84
2022/11/07 13:04:47;;;;;;;;;;;;;;;;;;;;;
2022/11/07 13:07:51;;;;;;;3.22;2.50;;;18.80;64.90;;;;;;6055968;23;20203;-84
2022/11/07 13:10:24;;;;;;;3.15;2.60;;;18.90;64.20;;;;;;6088163;23;20236;-84
2022/11/07 13:13:09;;;;;;;6.35;2.70;;;18.80;64.50;;;;;;6085309;23;20163;-84
2022/11/07 13:15:37;;;;;;;4.15;2.42;;;18.80;64.70;;;;;;6086205;23;20179;-84
2022/11/07 13:18:19;;;;;;;4.00;2.60;;;18.80;64.30;;;;;;6098610;23;20196;-86
2022/11/07 13:21:04;;;;;;;3.20;2.25;;;18.80;64.10;;;;;;6062714;23;20160;-83
2022/11/07 13:23:48;;;;;;;3.85;2.22;;;18.80;64.40;;;;;;6064007;23;20235;-83
2022/11/07 13:26:31;;;;;;;3.00;2.30;;;18.70;64.10;;;;;;6093314;23;20214;-84
2022/11/07 13:29:17;;;;;;;5.68;2.63;;;18.80;64.20;;;;;;6115439;23;20238;-84
2022/11/07 13:32:01;;;;;;;;;;;;;;;;;;;;;
2022/11/07 13:34:48;;;;;;;4.78;2.63;;;18.80;64.60;;;;;;6135911;23;20472;-85
2022/11/07 13:37:34;;;;;;;;;;;;;;;;;;;;;
2022/11/07 13:40:17;;;;;;;5.60;2.30;;;18.80;64.50;;;;;;6146217;23;20193;-84
2022/11/07 13:42:47;;;;;;;5.53;2.42;;;18.80;64.30;;;;;;6173615;23;20155;-84
2022/11/07 13:46:00;;;;;;;3.13;2.42;;;18.80;64.20;;;;;;6146814;23;20529;-84
2022/11/07 13:48:43;;;;;;;4.47;2.42;;;18.90;64.30;;;;;;6112360;23;20146;-85
2022/11/07 13:51:35;;;;;;;4.57;2.35;;;18.80;64.60;;;;;;5976585;23;20193;-85
2022/11/07 13:54:37;;;;;;;6.68;2.70;;;18.80;64.20;;;;;;6018801;23;20189;-85
2022/11/07 13:57:24;;;;;;;2.72;2.20;;;18.80;64.40;;;;;;6042789;23;20272;-84
2022/11/07 14:00:04;;;;;;;3.13;2.30;;;18.90;64.30;;;;;;6106146;23;20155;-84
2022/11/07 14:02:35;;;;;;;3.47;2.58;;;18.80;64.00;;;;;;6102890;23;20167;-85
2022/11/07 14:05:10;;;;;;;4.65;2.58;;;18.80;63.90;;;;;;6163285;23;20156;-86
2022/11/07 14:08:14;;;;;;;3.78;2.40;;;18.80;64.30;;;;;;6137941;23;20166;-85
2022/11/07 14:11:03;;;;;;;5.20;2.20;;;18.80;64.40;;;;;;6138042;23;20207;-84
2022/11/07 14:14:26;;;;;;;3.92;2.70;;;18.80;64.30;;;;;;6085102;23;20148;-85
2022/11/07 14:17:11;;;;;;;4.68;2.80;;;18.80;64.50;;;;;;6196153;23;20189;-86
2022/11/07 14:19:44;;;;;;;3.42;2.30;;;18.80;64.00;;;;;;6227723;23;20161;-85
2022/11/07 14:22:37;;;;;;;3.70;2.22;;;18.80;64.00;;;;;;6171275;22;20155;-85
2022/11/07 14:25:26;;;;;;;3.58;2.63;;;18.80;64.10;;;;;;6221474;22;20614;-85
2022/11/07 14:27:55;;;;;;;3.95;2.30;;;18.80;64.00;;;;;;6197904;23;20166;-86
2022/11/07 14:31:16;;;;;;;2.92;2.22;;;18.80;64.00;;;;;;6196152;23;20247;-87
2022/11/07 14:34:38;;;;;;;;;;;;;;;;;;;;;
2022/11/07 14:38:12;;;;;;;3.00;2.42;;;18.90;64.30;;;;;;5899686;24;20241;-87
2022/11/07 14:40:21;;;;;;;3.90;2.30;;;18.90;63.80;;;;;;5867257;24;20177;-87
2022/11/07 14:43:27;;;;;;;;;;;;;;;;;;;;;
2022/11/07 14:46:11;;;;;;;;;;;;;;;;;;;;;
2022/11/07 14:48:57;;;;;;;3.08;2.10;;;18.80;64.10;;;;;;5721618;25;20288;-86
2022/11/07 14:51:31;;;;;;;3.88;2.65;;;18.80;63.90;;;;;;5726318;25;20201;-85
2022/11/07 14:54:14;;;;;;;3.53;2.67;;;18.80;64.30;;;;;;5722629;25;20162;-85
2022/11/07 15:03:33;;;;;;;2.92;2.38;;;18.80;63.90;;;;;;5777526;24;20257;-83
2022/11/07 15:05:59;;;;;;;3.28;2.55;;;18.90;64.40;;;;;;5779496;24;20252;-83
2022/11/07 15:08:37;;;;;;;2.95;2.50;;;18.80;63.90;;;;;;5836788;24;20163;-85
2022/11/07 15:11:23;;;;;;;3.20;2.30;;;18.80;63.90;;;;;;5968743;24;20198;-85
2022/11/07 15:13:49;;;;;;;3.25;2.40;;;18.90;63.60;;;;;;6032822;23;20158;-85
2022/11/07 15:17:09;;;;;;;;;;;;;;;;;;;;;
2022/11/07 15:20:09;;;;;;;3.72;2.40;;;18.90;63.70;;;;;;6125331;23;20183;-83
2022/11/07 15:22:39;;;;;;;5.45;2.60;;;18.90;64.60;;;;;;6143189;23;20232;-83
2022/11/07 15:25:28;;;;;;;2.88;2.38;;;18.80;64.50;;;;;;6167427;23;20150;-84
2022/11/07 15:28:00;;;;;;;2.70;2.40;;;18.80;64.50;;;;;;6167589;23;20170;-83
2022/11/07 15:30:48;;;;;;;;;;;;;;;;;;;;;
2022/11/07 15:34:02;;;;;;;5.07;2.63;;;18.80;64.50;;;;;;6142450;23;20158;-86
2022/11/07 15:36:40;;;;;;;2.92;2.25;;;18.90;64.50;;;;;;6108486;23;20171;-84
2022/11/07 15:39:10;;;;;;;3.63;2.10;;;18.90;64.30;;;;;;6123592;23;20173;-82
2022/11/07 15:41:48;;;;;;;2.85;2.08;;;18.90;64.30;;;;;;6142030;23;20151;-83
2022/11/07 15:44:17;;;;;;;3.78;2.30;;;18.90;65.80;;;;;;6140060;23;20156;-83
2022/11/07 15:46:45;;;;;;;2.50;2.20;;;18.90;65.00;;;;;;6114590;23;20139;-85
2022/11/07 15:49:17;;;;;;;4.35;2.38;;;18.90;64.30;;;;;;6111749;23;20159;-84
2022/11/07 15:51:43;;;;;;;3.67;2.30;;;18.90;64.40;;;;;;6111122;23;20160;-83
2022/11/07 15:54:13;;;;;;;3.17;2.30;;;19.00;64.30;;;;;;6089940;23;20159;-83
2022/11/07 15:56:40;;;;;;;4.78;2.40;;;18.90;64.50;;;;;;6084036;23;20253;-85